| time (UTC) | temp F | wind direction | speed MPH | gust MPH | rain 1hr in | rain 24hr in | rain mn in | humidity % | barometer mb |
| 20260502152315 | 50 | 64 | 0.0 | 0.0 | 0.00 | 0.98 | 0.00 | 84 | 1016.4 |
| 20260502151834 | 49 | 64 | 0.0 | 0.0 | 0.00 | 0.98 | 0.20 | 84 | 1016.5 |
| 20260502151333 | 49 | 64 | 0.0 | 0.0 | 0.00 | 0.98 | 0.20 | 84 | 1016.7 |
| 20260502150851 | 50 | 64 | 0.0 | 0.0 | 0.00 | 0.98 | 0.20 | 83 | 1016.7 |
| 20260502150328 | 50 | 64 | 0.0 | 0.0 | 0.00 | 0.98 | 0.20 | 83 | 1016.8 |
| 20260502130333 | 53 | 193 | 0.0 | 0.0 | 0.00 | 0.98 | 0.20 | 77 | 1016.0 |
| 20260502123325 | 55 | 193 | 0.0 | 0.0 | 0.00 | 0.98 | 0.20 | 73 | 1016.0 |
| 20260502122824 | 55 | 193 | 0.0 | 0.0 | 0.00 | 0.98 | 0.20 | 72 | 1016.0 |
| 20260502122322 | 56 | 193 | 0.0 | 0.0 | 0.00 | 0.98 | 0.20 | 72 | 1015.8 |
| 20260502121820 | 56 | 189 | 0.0 | 0.0 | 0.00 | 0.98 | 0.20 | 73 | 1015.9 |
| 20260502121318 | 56 | 189 | 0.0 | 0.0 | 0.00 | 0.98 | 0.20 | 73 | 1015.8 |
| 20260502120815 | 56 | 189 | 0.0 | 0.0 | 0.00 | 0.98 | 0.20 | 72 | 1015.8 |
| 20260502120318 | 56 | 191 | 0.0 | 0.0 | 0.00 | 0.98 | 0.20 | 72 | 1015.9 |
| 20260502115815 | 56 | 166 | 0.0 | 0.0 | 0.00 | 0.98 | 0.20 | 71 | 1015.7 |
| 20260502115313 | 56 | 165 | 0.0 | 0.0 | 0.00 | 0.98 | 0.20 | 71 | 1015.5 |
| 20260502114832 | 56 | 163 | 0.0 | 0.0 | 0.00 | 0.98 | 0.20 | 71 | 1015.5 |
| 20260502114329 | 56 | 163 | 0.0 | 0.0 | 0.00 | 0.98 | 0.20 | 72 | 1015.4 |
| 20260502113828 | 56 | 163 | 0.0 | 0.0 | 0.00 | 0.98 | 0.20 | 72 | 1015.2 |
| 20260502113351 | 57 | 160 | 0.0 | 0.0 | 0.00 | 0.98 | 0.20 | 72 | 1015.2 |
| 20260502112828 | 57 | 158 | 0.0 | 1.0 | 0.00 | 0.98 | 0.20 | 71 | 1015.1 |
| 20260502112346 | 58 | 158 | 0.0 | 1.0 | 0.00 | 0.98 | 0.20 | 71 | 1015.1 |
| 20260502111844 | 58 | 65 | 0.0 | 0.0 | 0.00 | 0.98 | 0.20 | 69 | 1015.1 |
| 20260502111321 | 59 | 65 | 0.0 | 1.0 | 0.00 | 0.98 | 0.20 | 69 | 1015.0 |
| 20260502110819 | 59 | 65 | 0.0 | 2.0 | 0.00 | 0.98 | 0.20 | 68 | 1015.0 |
| 20260502110318 | 60 | 52 | 0.0 | 3.0 | 0.00 | 0.98 | 0.20 | 67 | 1015.0 |
| 20260502105838 | 60 | 52 | 2.0 | 4.0 | 0.00 | 0.98 | 0.20 | 67 | 1014.9 |
| 20260502105316 | 60 | 39 | 1.0 | 4.0 | 0.00 | 0.98 | 0.20 | 67 | 1014.8 |
| 20260502104815 | 60 | 44 | 0.0 | 0.0 | 0.00 | 0.98 | 0.20 | 67 | 1014.8 |
| 20260502104314 | 60 | 12 | 0.0 | 0.0 | 0.00 | 0.98 | 0.20 | 66 | 1014.8 |
| 20260502103833 | 60 | 58 | 0.0 | 0.0 | 0.00 | 0.98 | 0.20 | 67 | 1014.5 |
| 20260502103329 | 60 | 224 | 0.0 | 0.0 | 0.00 | 0.98 | 0.20 | 67 | 1014.4 |
| 20260502102827 | 60 | 224 | 0.0 | 0.0 | 0.00 | 0.98 | 0.20 | 67 | 1014.3 |
| 20260502102326 | 61 | 224 | 0.0 | 0.0 | 0.00 | 0.98 | 0.20 | 66 | 1014.3 |
| 20260502101845 | 61 | 224 | 0.0 | 0.0 | 0.00 | 2.44 | 0.20 | 66 | 1014.3 |
| 20260502101343 | 62 | 224 | 0.0 | 0.0 | 0.00 | 2.44 | 0.20 | 64 | 1014.2 |
| 20260502100820 | 62 | 224 | 0.0 | 0.0 | 0.00 | 2.44 | 0.20 | 64 | 1014.3 |
| 20260502100339 | 62 | 202 | 0.0 | 0.0 | 0.00 | 2.44 | 0.20 | 63 | 1014.2 |
| 20260502091327 | 66 | 35 | 2.0 | 4.0 | 0.00 | 4.49 | 0.20 | 51 | 1013.4 |
| 20260502090826 | 66 | 50 | 1.0 | 4.0 | 0.00 | 4.49 | 0.20 | 51 | 1013.3 |
| 20260502090325 | 66 | 302 | 1.0 | 5.0 | 0.00 | 4.49 | 0.20 | 51 | 1013.3 |
| 20260502071318 | 70 | 76 | 6.0 | 15.0 | 0.00 | 8.43 | 0.20 | 42 | 1012.2 |
| 20260502070816 | 70 | 29 | 7.0 | 19.0 | 0.00 | 8.43 | 0.20 | 42 | 1012.1 |
| 20260502070315 | 70 | 60 | 9.0 | 21.0 | 0.00 | 8.43 | 0.20 | 41 | 1012.1 |
| 20260502065815 | 71 | 16 | 5.0 | 15.0 | 0.00 | 8.43 | 0.20 | 41 | 1012.0 |
| 20260502065314 | 71 | 25 | 8.0 | 15.0 | 0.00 | 8.43 | 0.20 | 40 | 1012.0 |
| 20260502064833 | 71 | 70 | 9.0 | 17.0 | 0.00 | 8.43 | 0.20 | 39 | 1011.9 |
| 20260502064331 | 71 | 35 | 7.0 | 23.0 | 0.00 | 8.43 | 0.20 | 39 | 1012.0 |
| 20260502063829 | 70 | 71 | 8.0 | 23.0 | 0.00 | 8.43 | 0.20 | 40 | 1012.1 |
| 20260502063327 | 70 | 257 | 8.0 | 19.0 | 0.00 | 8.43 | 0.20 | 40 | 1012.1 |
| 20260502062847 | 70 | 88 | 10.0 | 19.0 | 0.00 | 8.43 | 0.20 | 39 | 1011.9 |
| 20260502062324 | 71 | 52 | 8.0 | 17.0 | 0.00 | 8.43 | 0.20 | 39 | 1011.9 |
| 20260502061822 | 71 | 22 | 9.0 | 17.0 | 0.00 | 8.43 | 0.20 | 39 | 1012.1 |
| 20260502061325 | 70 | 16 | 9.0 | 19.0 | 0.00 | 8.43 | 0.20 | 39 | 1012.1 |
| 20260502060824 | 71 | 20 | 9.0 | 19.0 | 0.00 | 8.43 | 0.20 | 39 | 1011.9 |
| 20260502060322 | 71 | 92 | 8.0 | 16.0 | 0.00 | 8.43 | 0.20 | 39 | 1012.0 |
| 20260502055822 | 71 | 124 | 7.0 | 17.0 | 0.00 | 8.43 | 0.20 | 40 | 1011.7 |
| 20260502055320 | 71 | 123 | 9.0 | 19.0 | 0.00 | 8.43 | 0.20 | 40 | 1011.8 |
| 20260502054818 | 71 | 7 | 7.0 | 19.0 | 0.00 | 8.43 | 0.20 | 39 | 1011.7 |
| 20260502054317 | 71 | 46 | 8.0 | 17.0 | 0.00 | 8.43 | 0.20 | 39 | 1011.8 |
| 20260502053813 | 70 | 44 | 8.0 | 20.0 | 0.00 | 8.43 | 0.20 | 39 | 1011.8 |
| 20260502053312 | 71 | 171 | 11.0 | 20.0 | 0.00 | 8.43 | 0.20 | 38 | 1011.6 |
| 20260502052833 | 71 | 78 | 8.0 | 17.0 | 0.00 | 8.43 | 0.20 | 39 | 1011.5 |
| 20260502052352 | 71 | 44 | 8.0 | 20.0 | 0.00 | 8.43 | 0.20 | 39 | 1011.6 |
| 20260502051829 | 71 | 106 | 11.0 | 20.0 | 0.00 | 8.43 | 0.20 | 38 | 1011.6 |
| 20260502051328 | 71 | 57 | 7.0 | 19.0 | 0.00 | 8.43 | 0.20 | 37 | 1011.5 |
| 20260502050826 | 71 | 68 | 12.0 | 21.0 | 0.00 | 8.43 | 0.20 | 38 | 1011.4 |
| 20260502050324 | 71 | 36 | 13.0 | 21.0 | 0.00 | 8.43 | 0.20 | 38 | 1011.3 |
| 20260502045823 | 71 | 27 | 10.0 | 22.0 | 0.00 | 8.43 | 0.20 | 39 | 1011.2 |
| 20260502045322 | 70 | 65 | 11.0 | 22.0 | 0.00 | 8.43 | 0.20 | 38 | 1011.2 |
| 20260502044821 | 71 | 358 | 6.0 | 22.0 | 0.00 | 8.43 | 0.20 | 39 | 1011.3 |
| 20260502044319 | 71 | 63 | 10.0 | 19.0 | 0.00 | 8.43 | 0.20 | 39 | 1011.4 |
| 20260502043817 | 71 | 40 | 7.0 | 19.0 | 0.00 | 8.43 | 0.20 | 39 | 1011.5 |
| 20260502043337 | 71 | 61 | 10.0 | 18.0 | 0.00 | 8.43 | 0.20 | 38 | 1011.6 |
| 20260502042819 | 71 | 116 | 7.0 | 19.0 | 0.00 | 8.43 | 0.20 | 40 | 1011.5 |
| 20260502042317 | 71 | 39 | 10.0 | 27.0 | 0.00 | 8.43 | 0.20 | 38 | 1011.2 |
| 20260502041816 | 71 | 49 | 6.0 | 27.0 | 0.00 | 8.43 | 0.20 | 40 | 1011.3 |
| 20260502041314 | 71 | 49 | 9.0 | 22.0 | 0.00 | 8.43 | 0.20 | 39 | 1011.0 |
| 20260502040813 | 71 | 53 | 9.0 | 20.0 | 0.00 | 8.43 | 0.20 | 39 | 1011.1 |
| 20260502040331 | 71 | 338 | 9.0 | 20.0 | 0.00 | 8.43 | 0.20 | 38 | 1011.3 |
| 20260502035831 | 70 | 51 | 9.0 | 19.0 | 0.00 | 8.43 | 0.20 | 39 | 1011.2 |
| 20260502035330 | 70 | 43 | 8.0 | 18.0 | 0.00 | 8.43 | 0.20 | 39 | 1011.2 |
| 20260502034830 | 71 | 24 | 7.0 | 18.0 | 0.00 | 8.43 | 0.20 | 39 | 1011.1 |
| 20260502034329 | 70 | 334 | 7.0 | 18.0 | 0.00 | 8.43 | 0.20 | 39 | 1011.1 |
| 20260502033849 | 70 | 25 | 8.0 | 18.0 | 0.00 | 8.43 | 0.20 | 39 | 1011.2 |
| 20260502033327 | 70 | 84 | 10.0 | 18.0 | 0.00 | 8.43 | 0.20 | 39 | 1011.2 |
| 20260502032825 | 70 | 42 | 9.0 | 18.0 | 0.00 | 8.43 | 0.20 | 39 | 1011.1 |
| 20260502032324 | 69 | 32 | 10.0 | 19.0 | 0.00 | 8.43 | 0.20 | 38 | 1011.0 |
| 20260502031823 | 69 | 44 | 9.0 | 18.0 | 0.00 | 8.46 | 0.20 | 38 | 1011.0 |
| 20260502031321 | 69 | 58 | 9.0 | 17.0 | 0.00 | 8.46 | 0.20 | 38 | 1011.2 |
| 20260502030819 | 70 | 55 | 8.0 | 17.0 | 0.00 | 8.46 | 0.20 | 40 | 1011.2 |
| 20260502030316 | 69 | 158 | 9.0 | 18.0 | 0.00 | 8.46 | 0.20 | 39 | 1011.0 |
| 20260502025814 | 69 | 97 | 6.0 | 16.0 | 0.00 | 8.46 | 0.20 | 39 | 1011.0 |
| 20260502025313 | 69 | 51 | 7.0 | 15.0 | 0.00 | 8.46 | 0.20 | 39 | 1010.9 |
| 20260502024833 | 69 | 65 | 7.0 | 20.0 | 0.00 | 8.46 | 0.20 | 39 | 1010.8 |
| 20260502024332 | 69 | 51 | 9.0 | 20.0 | 0.00 | 8.46 | 0.20 | 39 | 1010.8 |
| 20260502023813 | 69 | 60 | 6.0 | 21.0 | 0.00 | 8.46 | 0.20 | 39 | 1010.7 |
| 20260502023349 | 69 | 143 | 11.0 | 21.0 | 0.00 | 8.46 | 0.20 | 38 | 1010.7 |
| 20260502022848 | 69 | 54 | 5.0 | 19.0 | 0.00 | 8.46 | 0.20 | 39 | 1010.8 |
| 20260502022330 | 69 | 10 | 7.0 | 21.0 | 0.00 | 8.46 | 0.20 | 39 | 1010.7 |
| 20260502021828 | 69 | 183 | 10.0 | 21.0 | 0.00 | 8.46 | 0.20 | 37 | 1010.9 |
| 20260502021346 | 69 | 51 | 7.0 | 16.0 | 0.00 | 8.46 | 0.20 | 39 | 1010.9 |
| 20260502020824 | 68 | 123 | 8.0 | 20.0 | 0.00 | 8.46 | 0.20 | 39 | 1010.5 |
| 20260502020341 | 68 | 72 | 8.0 | 19.0 | 0.00 | 8.46 | 0.20 | 38 | 1010.4 |
| 20260502015817 | 68 | 44 | 7.0 | 20.0 | 0.00 | 8.46 | 0.20 | 38 | 1010.6 |
| 20260502015314 | 68 | 124 | 8.0 | 20.0 | 0.00 | 8.46 | 0.20 | 38 | 1010.6 |
| 20260502014812 | 68 | 58 | 7.0 | 23.0 | 0.00 | 8.46 | 0.20 | 39 | 1010.5 |
| 20260502014332 | 67 | 63 | 6.0 | 23.0 | 0.00 | 8.46 | 0.20 | 39 | 1010.5 |
| 20260502013851 | 68 | 297 | 10.0 | 20.0 | 0.00 | 8.46 | 0.20 | 40 | 1010.5 |
| 20260502013328 | 67 | 57 | 10.0 | 17.0 | 0.00 | 8.46 | 0.20 | 39 | 1010.5 |
| 20260502012828 | 67 | 39 | 7.0 | 17.0 | 0.00 | 8.46 | 0.20 | 40 | 1010.5 |
| 20260502012349 | 67 | 134 | 6.0 | 14.0 | 0.00 | 8.46 | 0.20 | 40 | 1010.3 |
| 20260502011825 | 67 | 64 | 5.0 | 13.0 | 0.00 | 8.70 | 0.20 | 42 | 1010.3 |
| 20260502011325 | 67 | 58 | 6.0 | 12.0 | 0.00 | 8.70 | 0.20 | 41 | 1010.4 |
| 20260502010822 | 66 | 57 | 3.0 | 13.0 | 0.00 | 8.70 | 0.20 | 42 | 1010.3 |
| 20260502010320 | 66 | 27 | 7.0 | 13.0 | 0.00 | 8.70 | 0.20 | 41 | 1010.3 |
| 20260502005817 | 66 | 35 | 6.0 | 13.0 | 0.00 | 8.70 | 0.20 | 42 | 1010.3 |
| 20260502005314 | 66 | 44 | 3.0 | 12.0 | 0.00 | 8.70 | 0.20 | 43 | 1010.2 |
| 20260502004813 | 66 | 104 | 3.0 | 14.0 | 0.00 | 8.70 | 0.20 | 44 | 1010.3 |
| 20260502004354 | 65 | 105 | 4.0 | 14.0 | 0.00 | 8.70 | 0.20 | 42 | 1010.2 |
| 20260502003831 | 65 | 43 | 3.0 | 12.0 | 0.00 | 8.70 | 0.20 | 44 | 1010.3 |
| 20260502003312 | 65 | 20 | 4.0 | 13.0 | 0.00 | 8.70 | 0.20 | 43 | 1010.2 |
| 20260502002848 | 65 | 30 | 7.0 | 14.0 | 0.00 | 8.70 | 0.20 | 42 | 1010.0 |
| 20260502002327 | 64 | 67 | 7.0 | 17.0 | 0.00 | 8.70 | 0.20 | 44 | 1009.8 |
| 20260502001827 | 64 | 84 | 6.0 | 20.0 | 0.00 | 9.41 | 0.20 | 44 | 1009.9 |
| 20260502001326 | 64 | 55 | 9.0 | 20.0 | 0.00 | 9.41 | 0.20 | 43 | 1009.8 |
| 20260502000846 | 63 | 53 | 3.0 | 15.0 | 0.00 | 9.41 | 0.20 | 45 | 1009.8 |
| 20260502000324 | 63 | 67 | 7.0 | 15.0 | 0.00 | 9.41 | 0.20 | 45 | 1009.8 |
| 20260501235821 | 63 | 59 | 6.0 | 13.0 | 0.00 | 9.41 | 0.20 | 45 | 1009.9 |
| 20260501235340 | 62 | 54 | 2.0 | 5.0 | 0.00 | 9.41 | 0.20 | 52 | 1009.7 |
| 20260501234818 | 62 | 43 | 1.0 | 4.0 | 0.00 | 9.41 | 0.20 | 54 | 1009.8 |
| 20260501234317 | 61 | 287 | 0.0 | 1.0 | 0.00 | 9.41 | 0.20 | 56 | 1009.6 |
| 20260501233814 | 60 | 58 | 0.0 | 0.0 | 0.00 | 9.41 | 0.20 | 58 | 1009.6 |
| 20260501233314 | 60 | 58 | 0.0 | 2.0 | 0.00 | 9.41 | 0.20 | 63 | 1009.7 |
| 20260501232813 | 60 | 49 | 0.0 | 2.0 | 0.00 | 9.41 | 0.20 | 63 | 1009.6 |
| 20260501232333 | 60 | 233 | 0.0 | 2.0 | 0.00 | 9.41 | 0.20 | 62 | 1009.7 |
| 20260501231832 | 60 | 346 | 0.0 | 2.0 | 0.00 | 9.49 | 0.20 | 62 | 1009.6 |
| 20260501231330 | 60 | 246 | 0.0 | 3.0 | 0.00 | 9.49 | 0.20 | 64 | 1009.6 |
| 20260501230849 | 60 | 231 | 0.0 | 4.0 | 0.00 | 9.49 | 0.20 | 62 | 1009.4 |
| 20260501230348 | 60 | 353 | 1.0 | 4.0 | 0.00 | 9.49 | 0.20 | 61 | 1009.5 |
| 20260501225846 | 59 | 63 | 0.0 | 3.0 | 0.00 | 9.49 | 0.20 | 64 | 1009.3 |
| 20260501225324 | 58 | 63 | 0.0 | 4.0 | 0.00 | 9.49 | 0.20 | 68 | 1009.2 |
| 20260501224822 | 58 | 356 | 2.0 | 4.0 | 0.00 | 9.49 | 0.20 | 66 | 1009.4 |
| 20260501224322 | 58 | 335 | 0.0 | 1.0 | 0.00 | 9.49 | 0.20 | 63 | 1009.3 |
| 20260501223841 | 57 | 342 | 0.0 | 1.0 | 0.00 | 9.49 | 0.20 | 68 | 1009.4 |
| 20260501223340 | 57 | 210 | 0.0 | 1.0 | 0.00 | 9.49 | 0.20 | 69 | 1009.4 |
| 20260501222817 | 57 | 333 | 0.0 | 1.0 | 0.00 | 9.49 | 0.20 | 69 | 1009.2 |
| 20260501222316 | 56 | 233 | 0.0 | 1.0 | 0.00 | 9.49 | 0.20 | 71 | 1009.2 |
| 20260501221817 | 56 | 64 | 0.0 | 1.0 | 0.00 | 9.76 | 0.20 | 70 | 1009.1 |
| 20260501221315 | 55 | 55 | 0.0 | 0.0 | 0.00 | 9.76 | 0.20 | 74 | 1009.3 |
| 20260501220833 | 55 | 55 | 0.0 | 0.0 | 0.00 | 9.76 | 0.20 | 77 | 1009.2 |
| 20260501220332 | 55 | 51 | 0.0 | 1.0 | 0.00 | 9.76 | 0.20 | 75 | 1009.1 |
| 20260501215831 | 55 | 51 | 0.0 | 2.0 | 0.00 | 9.76 | 0.20 | 78 | 1008.9 |
| 20260501215331 | 54 | 51 | 1.0 | 2.0 | 0.00 | 9.76 | 0.20 | 79 | 1008.9 |
| 20260501214829 | 53 | 255 | 0.0 | 1.0 | 0.00 | 9.76 | 0.20 | 81 | 1008.7 |
| 20260501214328 | 53 | 238 | 0.0 | 0.0 | 0.00 | 9.76 | 0.20 | 80 | 1008.6 |
| 20260501213825 | 52 | 238 | 0.0 | 0.0 | 0.00 | 9.76 | 0.20 | 81 | 1008.5 |
| 20260501213343 | 52 | 238 | 0.0 | 0.0 | 0.00 | 9.76 | 0.20 | 80 | 1008.5 |
| 20260501212821 | 53 | 238 | 0.0 | 2.0 | 0.00 | 9.76 | 0.20 | 80 | 1008.4 |
| 20260501212340 | 53 | 238 | 0.0 | 2.0 | 0.00 | 9.76 | 0.20 | 78 | 1008.5 |
| 20260501211818 | 53 | 353 | 0.0 | 1.0 | 0.00 | 9.76 | 0.20 | 78 | 1008.4 |
| 20260501211336 | 53 | 355 | 0.0 | 1.0 | 0.00 | 9.76 | 0.20 | 79 | 1008.4 |
| 20260501210813 | 53 | 354 | 0.0 | 4.0 | 0.00 | 9.76 | 0.20 | 80 | 1008.1 |
| 20260501210333 | 52 | 239 | 2.0 | 4.0 | 0.00 | 9.76 | 0.20 | 78 | 1008.2 |
| 20260501205831 | 52 | 195 | 0.0 | 2.0 | 0.00 | 9.76 | 0.20 | 78 | 1007.8 |
| 20260501205350 | 52 | 197 | 1.0 | 2.0 | 0.00 | 9.76 | 0.20 | 79 | 1007.7 |
| 20260501204826 | 52 | 199 | 0.0 | 1.0 | 0.00 | 9.76 | 0.20 | 80 | 1007.6 |
| 20260501204324 | 51 | 204 | 0.0 | 2.0 | 0.00 | 9.76 | 0.20 | 80 | 1007.6 |
| 20260501203823 | 51 | 212 | 0.0 | 2.0 | 0.00 | 9.76 | 0.20 | 79 | 1007.7 |
| 20260501203321 | 52 | 217 | 1.0 | 2.0 | 0.00 | 9.76 | 0.20 | 77 | 1007.8 |
| 20260501202823 | 52 | 56 | 0.0 | 5.0 | 0.00 | 9.76 | 0.20 | 76 | 1007.7 |
| 20260501202322 | 52 | 56 | 1.0 | 8.0 | 0.00 | 9.76 | 0.20 | 75 | 1007.5 |
| 20260501201842 | 51 | 4 | 2.0 | 5.0 | 0.00 | 9.76 | 0.20 | 78 | 1007.5 |
| 20260501201320 | 52 | 108 | 0.0 | 1.0 | 0.00 | 9.76 | 0.20 | 79 | 1007.4 |
| 20260501200818 | 52 | 195 | 0.0 | 2.0 | 0.00 | 9.76 | 0.20 | 76 | 1007.5 |
| 20260501200315 | 52 | 70 | 1.0 | 5.0 | 0.00 | 9.76 | 0.20 | 76 | 1007.3 |
| 20260501195812 | 52 | 38 | 2.0 | 5.0 | 0.00 | 9.76 | 0.20 | 77 | 1007.5 |
| 20260501195333 | 52 | 20 | 2.0 | 6.0 | 0.00 | 9.76 | 0.20 | 77 | 1007.4 |
| 20260501194831 | 53 | 255 | 2.0 | 8.0 | 0.00 | 9.76 | 0.20 | 77 | 1007.6 |
| 20260501194330 | 53 | 68 | 3.0 | 12.0 | 0.00 | 9.76 | 0.20 | 76 | 1007.3 |
| 20260501193827 | 51 | 31 | 4.0 | 12.0 | 0.00 | 9.76 | 0.20 | 82 | 1007.3 |
| 20260501193326 | 51 | 218 | 0.0 | 2.0 | 0.00 | 9.76 | 0.20 | 85 | 1007.1 |
| 20260501192825 | 52 | 217 | 0.0 | 2.0 | 0.00 | 9.76 | 0.20 | 84 | 1007.1 |
| 20260501192323 | 52 | 238 | 0.0 | 7.0 | 0.00 | 9.76 | 0.20 | 84 | 1006.9 |
| 20260501191842 | 52 | 101 | 2.0 | 7.0 | 0.00 | 9.84 | 0.20 | 83 | 1006.8 |
| 20260501191342 | 52 | 29 | 0.0 | 8.0 | 0.00 | 9.84 | 0.20 | 83 | 1007.0 |
| 20260501190818 | 53 | 24 | 2.0 | 13.0 | 0.00 | 9.84 | 0.20 | 83 | 1006.8 |
| 20260501190316 | 53 | 102 | 3.0 | 15.0 | 0.04 | 9.84 | 0.20 | 81 | 1006.6 |
| 20260501185815 | 54 | 43 | 1.0 | 21.0 | 0.04 | 9.84 | 0.20 | 79 | 1006.4 |
| 20260501185313 | 53 | 65 | 8.0 | 17.0 | 0.08 | 9.84 | 0.20 | 80 | 1006.3 |
| 20260501184832 | 53 | 21 | 8.0 | 19.0 | 0.12 | 9.84 | 0.20 | 82 | 1006.1 |
| 20260501184329 | 52 | 51 | 12.0 | 19.0 | 0.20 | 9.84 | 0.20 | 85 | 1006.2 |
| 20260501183827 | 51 | 49 | 5.0 | 12.0 | 0.24 | 9.84 | 0.20 | 91 | 1006.4 |
| 20260501183325 | 50 | 65 | 5.0 | 8.0 | 0.24 | 9.84 | 0.20 | 95 | 1006.4 |
| 20260501182823 | 50 | 87 | 1.0 | 7.0 | 0.28 | 9.84 | 0.20 | 95 | 1006.4 |
| 20260501182321 | 50 | 109 | 1.0 | 4.0 | 0.31 | 9.84 | 0.20 | 95 | 1006.3 |
| 20260501181323 | 51 | 68 | 0.0 | 2.0 | 0.39 | 9.88 | 0.20 | 95 | 1006.2 |
| 20260501180822 | 51 | 68 | 0.0 | 2.0 | 0.43 | 9.88 | 0.20 | 95 | 1006.5 |
| 20260501180320 | 51 | 82 | 0.0 | 1.0 | 0.43 | 9.84 | 0.19 | 95 | 1006.4 |
| 20260501175819 | 51 | 213 | 0.0 | 1.0 | 0.47 | 9.84 | 0.19 | 95 | 1006.5 |
| 20260501175337 | 51 | 213 | 0.0 | 1.0 | 0.47 | 9.80 | 0.18 | 95 | 1006.2 |
| 20260501174813 | 51 | 198 | 0.0 | 1.0 | 0.47 | 9.76 | 0.17 | 95 | 1005.9 |
| 20260501174352 | 51 | 51 | 0.0 | 1.0 | 0.39 | 9.69 | 0.16 | 95 | 1005.6 |
| 20260501173829 | 51 | 51 | 0.0 | 1.0 | 0.39 | 9.65 | 0.15 | 95 | 1005.4 |
| 20260501173328 | 50 | 39 | 0.0 | 3.0 | 0.43 | 9.65 | 0.15 | 95 | 1005.2 |
| 20260501172827 | 50 | 39 | 1.0 | 7.0 | 0.39 | 9.61 | 0.14 | 94 | 1005.0 |
| 20260501172323 | 51 | 70 | 4.0 | 7.0 | 0.39 | 9.57 | 0.13 | 94 | 1004.6 |
| 20260501171842 | 51 | 24 | 2.0 | 5.0 | 0.39 | 9.53 | 0.13 | 94 | 1004.3 |
| 20260501171340 | 51 | 60 | 1.0 | 5.0 | 0.39 | 9.49 | 0.12 | 94 | 1004.0 |
| 20260501170817 | 51 | 64 | 3.0 | 5.0 | 0.39 | 9.45 | 0.11 | 94 | 1003.8 |
| 20260501170335 | 51 | 38 | 3.0 | 5.0 | 0.39 | 9.41 | 0.10 | 94 | 1003.7 |
| 20260501165812 | 51 | 47 | 3.0 | 5.0 | 0.39 | 9.33 | 0.09 | 95 | 1003.5 |
| 20260501165331 | 51 | 42 | 3.0 | 5.0 | 0.43 | 9.33 | 0.09 | 95 | 1003.3 |
| 20260501164829 | 51 | 56 | 1.0 | 4.0 | 0.39 | 9.29 | 0.08 | 95 | 1003.0 |
| 20260501164348 | 51 | 51 | 1.0 | 3.0 | 0.39 | 9.29 | 0.08 | 95 | 1002.8 |
| 20260501163847 | 51 | 68 | 1.0 | 2.0 | 0.35 | 9.25 | 0.07 | 95 | 1002.5 |
| 20260501163324 | 51 | 110 | 0.0 | 1.0 | 0.31 | 9.21 | 0.06 | 95 | 1002.3 |
| 20260501162822 | 51 | 205 | 0.0 | 0.0 | 0.31 | 9.21 | 0.06 | 95 | 1002.2 |
| 20260501162326 | 51 | 205 | 0.0 | 0.0 | 0.28 | 9.17 | 0.06 | 95 | 1002.0 |
| 20260501161824 | 51 | 205 | 0.0 | 0.0 | 0.24 | 9.13 | 0.05 | 95 | 1001.9 |
| 20260501161323 | 51 | 205 | 0.0 | 0.0 | 0.20 | 9.09 | 0.04 | 94 | 1001.8 |
| 20260501160820 | 51 | 205 | 0.0 | 0.0 | 0.16 | 9.06 | 0.03 | 94 | 1001.7 |
| 20260501160340 | 51 | 205 | 0.0 | 1.0 | 0.08 | 8.98 | 0.02 | 95 | 1001.6 |
| 20260501155816 | 51 | 205 | 0.0 | 2.0 | 0.04 | 8.94 | 0.01 | 95 | 1001.4 |